Flight Track Log - Related Links

Times and Time Zones

All times are in EDT time to prevent confusion due to time zone crossing. See the N960DL flight status page for this flight to view local times or setup timezone preferences in your user account.

Time Position Orientation Groundspeed Altitude Reporting Facility
EDT Latitude Longitude Course Direction KTS MPH feet Rate Location/Type
Wed 10:01:46 PM 33.6333 -84.4000 121° Southeast 150 173 2,400  Level Atlanta TRACON
Wed 10:02:46 PM 33.6333 -84.3333 90° East 220 253 4,000 2,100 Climbing Atlanta TRACON
Wed 10:03:46 PM 33.6333 -84.2500 90° East 262 302 6,600 2,448 Climbing Atlanta TRACON
Wed 10:04:00 PM 33.7137 -84.0266 118° Southeast  Level FlightAware Approximate
Wed 10:05:00 PM 33.6617 -83.9074 118° Southeast  Level FlightAware Approximate
Wed 10:05:40 PM 33.6314 -84.0811 91° East 293 337 11,100  Level Atlanta Center
Wed 10:06:00 PM 33.6095 -83.7883 118° Southeast  Level FlightAware Approximate
Wed 10:06:40 PM 33.6106 -83.9639 102° East 331 381 12,900  Level Atlanta Center
Wed 10:07:00 PM 33.5528 -83.6723 121° Southeast  Level FlightAware Approximate
Wed 10:07:40 PM 33.5894 -83.8517 103° East 359 413 15,000  Level Atlanta Center
Wed 10:08:40 PM 33.5683 -83.7247 101° East 384 442 18,200 2,900 Climbing Atlanta Center
Wed 10:09:40 PM 33.5556 -83.6025 97° East 384 442 20,800 2,000 Climbing Atlanta Center
Wed 10:10:40 PM 33.5694 -83.4703 83° East 379 436 22,200 1,100 Climbing Atlanta Center
Wed 10:11:40 PM 33.5522 -83.3408 99° East 394 453 23,000 400 Climbing Atlanta Center
Wed 10:12:40 PM 33.5264 -83.2092 103° East 405 466 23,000  Level Atlanta Center
Wed 10:13:40 PM 33.5025 -83.0747 102° East 410 472 23,000  Level Atlanta Center
Wed 10:14:40 PM 33.4719 -82.9381 105° East 399 459 23,000  Level Atlanta Center
Wed 10:15:40 PM 33.4500 -82.8139 102° East 385 443 23,000  Level Atlanta Center
Wed 10:16:40 PM 33.4278 -82.6897 102° East 379 436 23,000  Level Atlanta Center
Wed 10:17:40 PM 33.4014 -82.5708 105° East 374 430 23,000  Level Atlanta Center
Wed 10:18:40 PM 33.3789 -82.4417 102° East 378 435 23,000  Level Atlanta Center
Wed 10:19:40 PM 33.3522 -82.3128 104° East 388 447 23,000  Level Atlanta Center
Wed 10:21:28 PM 33.3078 -82.0725 102° East 409 471 23,000  Level Jacksonville Center
Wed 10:22:28 PM 33.2819 -81.9408 103° East 409 471 23,000  Level Jacksonville Center
Wed 10:23:28 PM 33.2558 -81.8094 103° East 409 471 23,000  Level Jacksonville Center
Wed 10:24:28 PM 33.2294 -81.6758 103° East 409 471 23,000  Level Jacksonville Center
Wed 10:25:28 PM 33.2031 -81.5447 103° East 409 471 23,000 -450 Level Jacksonville Center
Wed 10:26:28 PM 33.1767 -81.4108 103° East 409 471 22,100 -950 Descending Jacksonville Center
Wed 10:27:28 PM 33.1500 -81.2825 104° East 409 471 21,100 -1,100 Descending Jacksonville Center
Wed 10:28:28 PM 33.1253 -81.1564 103° East 404 465 19,900 -1,650 Descending Jacksonville Center
Wed 10:29:28 PM 33.1006 -81.0328 103° East 393 452 17,800 -2,250 Descending Jacksonville Center
Wed 10:30:28 PM 33.0758 -80.9169 104° East 381 438 15,400 -2,450 Descending Jacksonville Center
Wed 10:31:28 PM 33.0531 -80.7983 103° East 368 423 12,900 -2,000 Descending Jacksonville Center
Wed 10:32:28 PM 33.0283 -80.6925 106° East 349 402 11,400 -1,250 Descending Jacksonville Center
Wed 10:33:28 PM 33.0036 -80.5939 107° East 327 376 10,400 -1,150 Descending Jacksonville Center
Wed 10:34:28 PM 32.9503 -80.5286 134° Southeast 284 327 9,100 -1,400 Descending Jacksonville Center
Wed 10:35:28 PM 32.8969 -80.4681 136° Southeast 278 320 7,600 -1,450 Descending Jacksonville Center
Wed 10:36:28 PM 32.8581 -80.4047 126° Southeast 268 308 6,200 -1,400 Descending Jacksonville Center
Wed 10:37:28 PM 32.8253 -80.3339 119° Southeast 251 289 4,800 -1,400 Descending Jacksonville Center
Wed 10:38:28 PM 32.7947 -80.2633 117° Southeast 245 282 3,400 -1,400 Descending Jacksonville Center

Login

Don't have an account? Register now (free) for customized features, flight alerts, and more!